• Join FlightAware (Why Join?)
  • Login
  • US Flag 
02:36PM EDT


 

Airport Tracker/Info


-or-


 

Live Flight TrackerFlight Track Log ✈ UAL4888 ✈ 07-May-2013 ✈ KDEN - KMCI

Flight Track Log - Related Links

Times and Time Zones

All times are in EDT time to prevent confusion due to time zone crossing. See the UAL4888 flight status page for this flight to view local times or setup timezone preferences in your user account.

Time Position Orientation Groundspeed Altitude Reporting Facility
EDT Latitude Longitude Course Direction KTS MPH feet Rate Location/Type
12:20PM 39.9167 -104.6667 72° East 185 213 6,700  Level Denver TRACON
12:21PM 39.9333 -104.6000 72° East 234 269 8,400 1,200 Climbing Denver TRACON
12:22PM 39.9500 -104.5167 75° East 276 318 9,000 300 Climbing Denver TRACON
12:23PM 39.9500 -104.4167 90° East 296 341 9,000 600 Level Denver TRACON
12:23PM 39.9333 -104.3167 102° East 299 344 10,200 1,560 Climbing Denver TRACON
12:25PM 39.9169 -104.1919 100° East 296 341 12,400 1,260 Climbing Denver Center
12:26PM 39.9000 -104.0775 101° East 300 345 13,100 300 Climbing Denver Center
12:27PM 39.8803 -103.9589 102° East 330 380 13,100  Level Denver Center
12:28PM 39.8717 -103.8314 95° East 330 380 13,100 360 Level Denver Center
12:29PM 39.8839 -103.7222 82° East 323 372 13,900 960 Climbing Denver Center
12:30PM 39.8931 -103.6108 84° East 308 354 15,100 540 Climbing Denver Center
12:31PM 39.9033 -103.4681 85° East 331 381 15,100  Level Denver Center
12:32PM 39.9106 -103.3389 86° East 350 403 15,100  Level Denver Center
12:33PM 39.9208 -103.2125 84° East 350 403 15,100  Level Denver Center
12:34PM 39.9297 -103.0883 85° East 343 395 15,100  Level Denver Center
12:35PM 39.9381 -102.9631 85° East 343 395 15,100  Level Denver Center
12:36PM 39.9450 -102.8369 86° East 345 397 15,100 240 Level Denver Center
12:37PM 39.9539 -102.7117 85° East 345 397 15,700 1,140 Climbing Denver Center
12:38PM 39.9597 -102.5961 86° East 324 373 17,500 1,500 Climbing Denver Center
12:39PM 39.9703 -102.4694 84° East 301 346 18,900 1,200 Climbing Denver Center
12:40PM 39.9747 -102.3597 87° East 301 346 20,000 960 Climbing Denver Center
12:41PM 39.9892 -102.2497 80° East 305 351 21,000 960 Climbing Denver Center
12:42PM 40.0050 -102.1392 79° East 308 354 22,000 900 Climbing Denver Center
12:43PM 40.0194 -102.0292 80° East 305 351 22,900 900 Climbing Denver Center
12:44PM 40.0347 -101.9172 80° East 311 358 23,900 840 Climbing Denver Center
12:45PM 40.0492 -101.8061 80° East 308 354 24,700 480 Climbing Denver Center
12:46PM 40.0669 -101.6747 80° East 311 358 25,000 120 Climbing Denver Center
12:47PM 40.0814 -101.5636 80° East 335 386 25,000  Level Denver Center
12:49PM 40.0997 -101.4208 80° East 355 409 25,000  Level Denver Center
12:50PM 40.1150 -101.2964 81° East 359 413 25,000  Level Denver Center
12:51PM 40.1333 -101.1639 80° East 369 425 25,000  Level Denver Center
12:52PM 40.1497 -101.0311 81° East 371 427 25,000  Level Denver Center
12:53PM 40.1664 -100.8969 81° East 373 429 25,000  Level Denver Center
12:54PM 40.1861 -100.7339 81° East 376 433 25,000  Level Denver Center
12:55PM 40.2036 -100.5997 80° East 376 433 25,000  Level Denver Center
12:56PM 40.2058 -100.4644 89° East 371 427 25,000  Level Denver Center
12:57PM 40.2067 -100.3275 89° East 375 432 25,000  Level Denver Center
12:58PM 40.2097 -100.1944 88° East 371 427 25,000  Level Denver Center
12:59PM 40.2111 -100.0347 89° East 368 423 25,000  Level Denver Center
01:00PM 40.2139 -99.9036 88° East 365 420 25,000  Level Denver Center
01:01PM 40.2153 -99.7700 89° East 367 422 25,000  Level Denver Center
01:02PM 40.2172 -99.6378 89° East 365 420 25,000  Level Denver Center
01:03PM 40.2186 -99.5044 89° East 366 421 25,000  Level Denver Center
01:04PM 40.2189 -99.3736 90° East 364 419 25,000  Level Denver Center
01:05PM 40.2206 -99.2136 89° East 366 421 25,000  Level Denver Center
01:06PM 40.2211 -99.0817 90° East 365 420 25,000  Level Denver Center
01:07PM 40.2225 -98.9475 89° East 368 423 25,000  Level Denver Center
01:08PM 40.2219 -98.8678 90° East 367 422 25,000  Level Minneapolis Center
01:09PM 40.2219 -98.7333 90° East 370 426 25,000  Level Minneapolis Center
01:10PM 40.2222 -98.6011 90° East 367 422 25,000  Level Minneapolis Center
01:11PM 40.2219 -98.4683 90° East 366 421 25,000  Level Minneapolis Center
01:12PM 40.2231 -98.3100 89° East 365 420 25,000  Level Minneapolis Center
01:13PM 40.2217 -98.1778 91° East 365 420 25,000  Level Minneapolis Center
01:14PM 40.2214 -98.0458 90° East 364 419 25,000  Level Minneapolis Center
01:15PM 40.2200 -97.9133 91° East 364 419 25,000 -300 Level Minneapolis Center
01:16PM 40.2192 -97.7811 90° East 365 420 24,500 -540 Descending Minneapolis Center
01:17PM 40.2194 -97.6500 90° East 362 417 24,000 -300 Descending Minneapolis Center
01:18PM 40.2183 -97.4936 90° East 359 413 24,000  Level Minneapolis Center
01:19PM 40.2167 -97.3669 91° East 353 406 24,000  Level Minneapolis Center
01:20PM 40.2150 -97.2064 91° East 348 400 24,000  Level Minneapolis Center
01:21PM 40.2142 -97.0803 90° East 348 400 24,000  Level Minneapolis Center
01:22PM 40.2119 -96.9539 91° East 349 402 24,000  Level Minneapolis Center
01:23PM 40.2100 -96.8289 91° East 346 398 24,000  Level Minneapolis Center
01:24PM 40.2086 -96.7019 91° East 348 400 24,000  Level Minneapolis Center
01:26PM 40.2058 -96.5503 91° East 349 402 24,000  Level Minneapolis Center
01:27PM 40.2036 -96.4033 91° East 341 392 24,000 -540 Level Minneapolis Center
01:28PM 40.2011 -96.2539 91° East 341 392 22,800 -1,440 Descending Minneapolis Center
01:29PM 40.1706 -96.1358 109° East 351 404 21,000 -2,400 Descending Minneapolis Center
01:30PM 40.1192 -96.0286 122° Southeast 349 402 18,000 -2,880 Descending Minneapolis Center
01:31PM 40.0736 -95.9181 118° Southeast 347 399 15,100 -2,880 Descending Minneapolis Center
01:32PM 40.0261 -95.8103 120° Southeast 346 398 12,100 -2,460 Descending Minneapolis Center
01:33PM 39.9731 -95.6922 120° Southeast 334 384 10,100 -1,020 Descending Minneapolis Center
01:34PM 39.9347 -95.6044 120° Southeast 310 357 10,000 -60 Descending Minneapolis Center
01:35PM 39.8939 -95.5194 122° Southeast 293 337 10,000 -180 Level Minneapolis Center
01:36PM 39.8522 -95.4300 121° Southeast 288 331 9,700 -780 Descending Minneapolis Center
01:37PM 39.7997 -95.3581 134° Southeast 284 327 8,500 -840 Descending Minneapolis Center
01:38PM 39.7433 -95.3067 145° Southeast 268 308 8,000 -540 Descending Minneapolis Center